首页
METAR-TAF:

METAR-TAF

机场 :

North Myrtle Beach, 南卡罗来纳州, 美国

纬度: 33-48-42N, 经度: 078-43-26W, 海拔: 10米

当前天气观测

该预报发布于58分钟前的00:53 UTC
风速8节,风向东北
温度 3°C
湿度 60%
气压 1036 hPa
能見度: 16.1公里
天空无云

METAR: KCRE 230053Z 05008KT 10SM CLR 03/M04 A3058 RMK AO1 SLP356 T00281044

时间: 20:51 (01:51 UTC)

预报

该预报发布于2小时和28分钟前的23:23 UTC
预报有效从23日的 00点(UTC)到 23日的 24点(UTC)
风速8节,风向
能見度: 10公里
天空无云
从 23日的 0400点(UTC)
风速7节,风向
能見度: 10公里
散云层高于15000英尺
从 23日的 0900点(UTC)
风速8节,风向东转东南
能見度: 10公里
多云层高于6000英尺
短暂存在
从 23日的 10点(UTC)到 23日的 13点(UTC)
能見度: 4.8公里
轻雾
从 23日的 2100点(UTC)
风速11节,风向南转南东
能見度: 10公里
阴天层高于2500英尺

TAF: KCRE 222323Z 2300/2324 09008KT P6SM SKC FM230400 08007KT P6SM SCT150 FM230900 12008KT P6SM BKN060 TEMPO 2310/2313 3SM BR FM232100 15011KT P6SM OVC025

超过4000个机场的气象观测和天气预报(METAR&TAF报告)。

可查询的气象台以黄色和红色小点在地图上表示。

将鼠标移到小点上方,可查看气象台名称。

然后点击查看天气观测和预报。

如需切换地图:点击带黑十字的绿色按钮放大地图;点击带横线的绿色按钮缩小地图;或者点击绿色箭头查看邻近地区的地图。


METAR-TAF: